Time;durP1;ratioP1;P1;durP2;ratioP2;P2;SDS_P1;SDS_P2;PMS_P1;PMS_P2;Temp;Humidity;BMP_temperature;BMP_pressure;BME280_temperature;BME280_humidity;BME280_pressure;Samples;Min_cycle;Max_cycle;Signal;HPM_P1;HPM_P2
2021/04/05 00:02:50;;;;;;;;;17.89;16.56;;;;;9.31;34.37;98346.22;5576437;28;5727243;-90
2021/04/05 00:05:56;;;;;;;;;16.67;15.83;;;;;9.47;33.97;98396.72;5582874;28;5740800;-90
2021/04/05 00:08:59;;;;;;;;;17.00;15.00;;;;;9.32;34.12;98358.63;5572630;28;4497034;-89
2021/04/05 00:12:09;;;;;;;;;21.33;19.33;;;;;9.39;33.90;98354.78;5578129;28;5744944;-90
2021/04/05 00:15:12;;;;;;;;;16.67;15.67;;;;;9.82;34.01;98407.63;5568877;28;3214860;-90
2021/04/05 00:18:19;;;;;;;;;17.00;14.67;;;;;9.84;34.02;98400.13;5590566;28;5715833;-89
2021/04/05 00:21:27;;;;;;;;;16.00;14.00;;;;;9.50;34.12;98364.78;5585932;28;5736714;-90
2021/04/05 00:24:33;;;;;;;;;15.67;15.33;;;;;9.70;34.28;98394.13;5577378;28;5721001;-90
2021/04/05 00:27:42;;;;;;;;;16.14;14.14;;;;;9.31;34.22;98319.31;5624410;28;6440777;-89
2021/04/05 00:30:48;;;;;;;;;14.80;13.80;;;;;9.57;34.28;98370.09;5572123;28;4572105;-89
2021/04/05 00:33:55;;;;;;;;;15.50;13.50;;;;;9.07;34.31;98278.88;5593500;28;5729288;-89
2021/04/05 00:37:02;;;;;;;;;15.29;14.29;;;;;9.53;34.14;98332.03;5592675;28;6466833;-90
2021/04/05 00:40:12;;;;;;;;;14.00;13.00;;;;;9.53;33.95;98332.03;5586679;28;5698102;-91
2021/04/05 00:43:20;;;;;;;;;15.00;12.83;;;;;9.48;34.07;98317.66;5580932;28;5706418;-89
2021/04/05 00:46:30;;;;;;;;;16.17;14.67;;;;;9.65;33.75;98329.38;5585831;28;5691198;-89
2021/04/05 00:49:36;;;;;;;;;15.00;14.00;;;;;9.70;33.91;98316.06;5581420;28;5704388;-90
2021/04/05 00:52:51;;;;;;;;;15.00;14.83;;;;;9.95;33.92;98350.91;5609708;28;5708491;-90
2021/04/05 00:55:54;;;;;;;;;13.00;12.33;;;;;9.77;33.93;98315.97;5581087;28;3862726;-89
2021/04/05 00:59:02;;;;;;;;;12.67;12.00;;;;;9.82;33.92;98326.88;5612155;28;5702237;-89
2021/04/05 01:02:08;;;;;;;;;15.00;12.83;;;;;9.96;33.80;98341.78;5612035;28;5676209;-89
2021/04/05 01:05:15;;;;;;;;;14.67;13.17;;;;;9.98;34.08;98327.00;5595286;28;5700151;-90
2021/04/05 01:08:22;;;;;;;;;16.33;15.00;;;;;9.93;33.94;98321.50;5596826;28;5715734;-90
2021/04/05 01:11:31;;;;;;;;;14.00;13.50;;;;;9.69;33.86;98295.56;5588096;28;5696023;-90
2021/04/05 01:14:39;;;;;;;;;15.00;14.00;;;;;9.89;34.00;98317.63;5597127;28;5696070;-89
2021/04/05 01:17:47;;;;;;;;;13.83;13.00;;;;;9.57;34.07;98240.91;5628031;28;5704408;-90
2021/04/05 01:20:51;;;;;;;;;16.33;14.33;;;;;9.07;33.67;98206.28;5579739;28;4394015;-90
2021/04/05 01:23:55;;;;;;;;;15.33;14.00;;;;;9.21;33.85;98198.84;5575242;28;4189814;-90
2021/04/05 01:27:03;;;;;;;;;14.71;14.29;;;;;9.31;33.80;98191.03;5595002;28;5714760;-89
2021/04/05 01:30:27;;;;;;;;;12.67;12.00;;;;;10.05;33.76;98291.09;5596454;28;5688802;-90
2021/04/05 01:33:37;;;;;;;;;14.00;12.00;;;;;9.99;33.87;98292.81;5608297;28;5678284;-89
2021/04/05 01:36:43;;;;;;;;;12.33;12.00;;;;;9.68;33.83;98255.44;5573003;28;4960690;-89
2021/04/05 01:39:50;;;;;;;;;12.00;10.17;;;;;9.62;33.83;98224.91;5590169;28;4940848;-90
2021/04/05 01:42:58;;;;;;;;;12.00;11.00;;;;;10.02;33.92;98267.31;5587650;28;4931451;-90
2021/04/05 01:46:08;;;;;;;;;11.00;10.33;;;;;9.02;34.14;98127.34;5595741;28;4957578;-90
2021/04/05 01:49:14;;;;;;;;;11.67;11.67;;;;;9.60;33.71;98186.63;5596702;28;5699065;-90
2021/04/05 01:52:19;;;;;;;;;11.00;10.00;;;;;9.73;33.61;98234.03;5619710;28;4947488;-91
2021/04/05 01:55:27;;;;;;;;;12.00;11.67;;;;;10.05;33.60;98248.00;5595104;28;4976297;-91
2021/04/05 01:58:36;;;;;;;;;11.00;10.00;;;;;9.75;33.96;98235.44;5594508;28;4951352;-91
2021/04/05 02:01:40;;;;;;;;;12.00;10.00;;;;;8.65;33.72;98032.59;5596691;28;4510637;-90
2021/04/05 02:04:46;;;;;;;;;12.00;11.00;;;;;7.89;33.85;97943.84;5583039;28;4961666;-90
2021/04/05 02:07:51;;;;;;;;;11.00;11.00;;;;;10.02;33.72;98229.63;5581917;28;4383528;-91
2021/04/05 02:11:01;;;;;;;;;12.00;10.80;;;;;9.65;33.47;98167.91;5584804;28;4944986;-90
2021/04/05 02:14:07;;;;;;;;;12.00;10.40;;;;;9.57;33.51;98168.28;5596220;28;4935620;-91
2021/04/05 02:17:13;;;;;;;;;11.60;10.20;;;;;9.87;33.54;98195.88;5575675;28;4938726;-90
2021/04/05 02:20:20;;;;;;;;;12.33;12.33;;;;;10.04;33.53;98206.78;5575648;28;4985998;-90
2021/04/05 02:23:25;;;;;;;;;10.00;9.00;;;;;10.01;33.59;98199.19;5588396;28;4890823;-90
2021/04/05 02:26:34;;;;;;;;;10.33;9.33;;;;;9.93;33.40;98191.44;5593742;28;5649162;-91
2021/04/05 02:29:40;;;;;;;;;11.17;10.67;;;;;9.69;33.33;98130.56;5593628;28;5671009;-90
2021/04/05 02:32:46;;;;;;;;;13.00;11.00;;;;;9.62;33.59;98125.34;5609125;28;4965832;-91
2021/04/05 02:35:49;;;;;;;;;12.00;10.67;;;;;9.78;33.40;98137.25;5581594;28;4496058;-91
2021/04/05 02:38:57;;;;;;;;;12.50;11.50;;;;;9.65;33.25;98118.66;5591900;28;5700142;-91
2021/04/05 02:42:05;;;;;;;;;12.00;10.60;;;;;9.85;33.39;98154.09;5594137;28;4956437;-90
2021/04/05 02:45:13;;;;;;;;;13.50;12.00;;;;;9.45;33.57;98086.72;5608542;28;5698075;-90
2021/04/05 02:48:17;;;;;;;;;9.50;9.00;;;;;9.15;33.48;98059.91;5573069;28;4477326;-90
2021/04/05 02:51:25;;;;;;;;;11.00;10.00;;;;;9.37;33.15;98076.31;5593131;28;4960596;-91
2021/04/05 02:54:31;;;;;;;;;12.00;11.00;;;;;10.02;33.09;98165.00;5591883;28;4951312;-90
2021/04/05 02:57:40;;;;;;;;;10.00;9.17;;;;;9.46;33.36;98077.59;5604534;28;4933569;-90
2021/04/05 03:00:46;;;;;;;;;12.40;11.00;;;;;10.10;33.31;98162.75;5592538;28;4954362;-90
2021/04/05 03:03:55;;;;;;;;;11.00;10.00;;;;;10.07;33.43;98138.97;5587478;28;4955411;-91
2021/04/05 03:07:01;;;;;;;;;11.20;10.00;;;;;9.34;33.42;98050.69;5586436;28;4942873;-90
2021/04/05 03:10:05;;;;;;;;;11.67;9.00;;;;;9.77;33.34;98095.25;5580323;28;4133567;-91
2021/04/05 03:13:10;;;;;;;;;9.00;9.00;;;;;9.94;33.69;98131.16;5595613;28;4886739;-91
2021/04/05 03:16:16;;;;;;;;;10.00;8.00;;;;;8.72;33.57;97931.22;5572484;28;3816934;-91
2021/04/05 03:19:23;;;;;;;;;11.50;10.00;;;;;8.58;33.37;97905.63;5565547;28;4945026;-91
2021/04/05 03:22:27;;;;;;;;;8.50;8.00;;;;;9.64;33.46;98076.63;5561722;28;4878304;-91
2021/04/05 03:25:33;;;;;;;;;9.00;8.80;;;;;9.48;33.34;98045.91;5582424;28;4156482;-90
2021/04/05 03:28:40;;;;;;;;;11.00;9.83;;;;;9.02;33.35;97963.34;5572008;28;5664799;-90
2021/04/05 03:31:48;;;;;;;;;8.67;8.17;;;;;9.75;33.35;98073.13;5586072;28;5601223;-90
2021/04/05 03:34:58;;;;;;;;;10.00;9.00;;;;;9.59;33.34;98039.69;5565269;28;4909920;-90
2021/04/05 03:38:03;;;;;;;;;12.00;10.00;;;;;9.17;33.44;97971.78;5553588;28;4055507;-90
2021/04/05 03:41:21;;;;;;;;;10.00;9.00;;;;;9.47;33.43;98014.66;5549598;28;4907533;-90
2021/04/05 03:44:31;;;;;;;;;10.60;8.60;;;;;9.99;33.44;98069.34;5549812;28;4910559;-90
2021/04/05 03:47:41;;;;;;;;;10.67;9.67;;;;;9.43;33.51;97981.22;5537134;28;5651181;-91
2021/04/05 03:50:50;;;;;;;;;10.00;9.60;;;;;9.75;33.68;98030.06;5552171;28;4913763;-91
2021/04/05 03:53:56;;;;;;;;;8.00;8.00;;;;;9.68;33.44;98029.34;5550809;28;4869968;-91
2021/04/05 03:57:02;;;;;;;;;10.40;9.00;;;;;9.43;33.16;97975.84;5575407;28;3526351;-91
2021/04/05 04:00:10;;;;;;;;;12.40;11.60;;;;;9.87;33.45;98038.94;5555456;28;4947130;-90
2021/04/05 04:03:21;;;;;;;;;12.40;9.80;;;;;8.77;33.47;97879.44;5583756;28;4938674;-91
2021/04/05 04:06:31;;;;;;;;;10.00;10.00;;;;;8.30;33.19;97824.94;5569756;28;5683464;-90
2021/04/05 04:09:36;;;;;;;;;7.00;7.00;;;;;9.51;33.51;97992.44;5555774;28;4865816;-90
2021/04/05 04:13:11;;;;;;;;;10.00;8.80;;;;;9.91;33.39;98024.78;5556668;28;4881409;-91
2021/04/05 04:16:17;;;;;;;;;9.60;8.60;;;;;9.43;33.38;97957.00;5561271;28;4901183;-91
2021/04/05 04:19:24;;;;;;;;;10.00;9.00;;;;;9.33;33.40;97919.13;5586389;28;5617862;-90
2021/04/05 04:22:28;;;;;;;;;10.67;10.00;;;;;10.00;33.05;98027.91;5557351;28;4037708;-90
2021/04/05 04:25:32;;;;;;;;;9.40;9.00;;;;;10.00;33.44;98003.66;5570165;28;4897114;-90
2021/04/05 04:28:36;;;;;;;;;9.00;8.00;;;;;9.97;33.40;97996.88;5572034;28;4882602;-90
2021/04/05 04:31:44;;;;;;;;;8.60;7.00;;;;;9.75;33.30;97963.59;5569422;28;4848132;-90
2021/04/05 04:34:48;;;;;;;;;9.00;8.50;;;;;9.52;33.31;97937.56;5587049;28;4148128;-90
2021/04/05 04:37:56;;;;;;;;;9.83;9.67;;;;;9.70;33.34;97938.44;5592722;28;4920359;-90
2021/04/05 04:41:01;;;;;;;;;11.17;9.83;;;;;9.81;33.23;97946.50;5568090;28;5642885;-90
2021/04/05 04:44:05;;;;;;;;;8.33;8.00;;;;;9.47;33.39;97866.69;5544531;28;4886633;-90
2021/04/05 04:47:10;;;;;;;;;11.33;9.67;;;;;10.06;33.29;97935.38;5553809;28;5657475;-90
2021/04/05 04:50:16;;;;;;;;;11.33;10.00;;;;;8.06;33.28;97607.44;5555667;28;4279386;-90
2021/04/05 04:53:20;;;;;;;;;10.00;9.20;;;;;9.38;32.87;97868.13;5554362;28;3166914;-90
2021/04/05 04:56:23;;;;;;;;;8.75;8.75;;;;;10.23;33.03;97940.81;5555349;28;4256486;-90
2021/04/05 04:59:30;;;;;;;;;9.00;8.00;;;;;9.75;32.88;97853.25;5567200;28;5591131;-90
2021/04/05 05:02:35;;;;;;;;;8.60;8.00;;;;;10.29;32.92;97921.00;5543324;28;4875230;-91
2021/04/05 05:05:38;;;;;;;;;8.00;8.00;;;;;10.06;32.80;97900.38;5541960;28;4874176;-90
2021/04/05 05:08:43;;;;;;;;;10.00;9.00;;;;;10.24;32.75;97888.59;5555594;28;4908518;-90
2021/04/05 05:11:49;;;;;;;;;9.60;8.60;;;;;10.15;32.71;97868.47;5552194;28;4899161;-91
2021/04/05 05:14:53;;;;;;;;;9.20;8.20;;;;;10.28;32.83;97893.25;5561516;28;4882929;-90
2021/04/05 05:17:58;;;;;;;;;6.00;6.00;;;;;10.19;32.30;97842.72;5559872;28;4147167;-90
2021/04/05 05:21:13;;;;;;;;;6.11;5.78;;;;;10.55;31.93;97862.97;5580700;28;3780494;-90
2021/04/05 05:24:25;;;;;;;;;9.00;8.00;;;;;10.48;32.09;97817.31;5564693;28;4872027;-91
2021/04/05 05:27:28;;;;;;;;;7.00;7.00;;;;;10.60;31.90;97852.28;5570425;28;4857472;-90
2021/04/05 05:30:34;;;;;;;;;7.67;6.00;;;;;10.43;32.13;97809.16;5586281;28;4863757;-90
2021/04/05 05:33:40;;;;;;;;;8.00;8.00;;;;;9.12;31.87;97598.75;5563513;28;4851265;-90
2021/04/05 05:36:46;;;;;;;;;9.00;8.00;;;;;9.27;32.06;97590.13;5570136;28;4884892;-91
2021/04/05 05:39:52;;;;;;;;;10.80;10.00;;;;;9.58;31.82;97656.78;5584792;28;4942913;-91
2021/04/05 05:43:05;;;;;;;;;11.00;9.00;;;;;10.71;31.89;97813.59;5537281;28;4914784;-91
2021/04/05 05:46:23;;;;;;;;;8.50;8.00;;;;;10.90;32.11;97792.56;5582301;28;4880512;-91
2021/04/05 05:49:35;;;;;;;;;8.00;6.60;;;;;10.93;31.71;97784.78;5587196;28;4857435;-90
2021/04/05 05:53:04;;;;;;;;;8.00;8.00;;;;;11.39;31.70;97842.78;5571223;28;4867876;-90
2021/04/05 05:56:38;;;;;;;;;7.00;6.80;;;;;11.75;31.63;97835.94;5569076;28;4863745;-90
2021/04/05 05:59:49;;;;;;;;;7.00;6.00;;;;;11.96;31.61;97818.06;5565169;28;4863757;-90
2021/04/05 06:03:04;;;;;;;;;7.40;7.00;;;;;12.08;31.16;97810.59;5566899;28;4857479;-91
2021/04/05 06:06:17;;;;;;;;;6.00;6.00;;;;;11.95;30.80;97767.81;5543127;28;4853324;-90
2021/04/05 06:09:32;;;;;;;;;7.00;6.00;;;;;12.61;30.47;97817.72;5557233;28;4145053;-90
2021/04/05 06:12:48;;;;;;;;;7.00;6.20;;;;;12.61;29.76;97776.38;5551049;28;4861651;-89
2021/04/05 06:16:04;;;;;;;;;7.00;6.00;;;;;13.00;29.91;97807.41;5591663;28;4863765;-90
2021/04/05 06:19:26;;;;;;;;;6.67;6.67;;;;;12.74;29.12;97765.09;5610659;28;4143915;-90
2021/04/05 06:22:56;;;;;;;;;8.80;6.00;;;;;13.23;28.93;97798.91;5610535;28;4861651;-89
2021/04/05 06:26:08;;;;;;;;;5.56;5.56;;;;;12.93;28.92;97756.28;5591792;28;4139768;-90
2021/04/05 06:29:29;;;;;;;;;7.00;7.00;;;;;13.41;28.83;97779.47;5581712;28;4148106;-89
2021/04/05 06:32:42;;;;;;;;;6.00;6.00;;;;;13.50;28.74;97776.22;5570017;28;4872086;-89
2021/04/05 06:36:08;;;;;;;;;5.40;5.00;;;;;13.42;28.72;97699.88;5602111;28;4886649;-90
2021/04/05 06:39:21;;;;;;;;;5.00;4.00;;;;;14.09;28.37;97760.31;5612693;28;4860974;-90
2021/04/05 06:42:58;;;;;;;;;5.67;5.67;;;;;14.26;27.87;97756.25;5591943;28;4862640;-89
2021/04/05 06:46:25;;;;;;;;;5.00;5.00;;;;;14.44;27.14;97743.22;5580385;28;4877278;-90
2021/04/05 06:49:47;;;;;;;;;5.40;5.00;;;;;14.04;27.08;97681.72;5580355;28;4132552;-90
2021/04/05 06:53:08;;;;;;;;;5.50;5.00;;;;;14.65;27.05;97751.06;5592261;28;4863693;-90
2021/04/05 06:56:22;;;;;;;;;8.00;7.00;;;;;14.64;26.55;97716.88;5592069;28;4863724;-90
2021/04/05 06:59:46;;;;;;;;;6.80;6.00;;;;;14.67;26.72;97682.94;5589445;28;4315885;-91
2021/04/05 07:03:24;;;;;;;;;4.00;3.60;;;;;15.27;26.58;97735.34;5581001;28;4873073;-90
2021/04/05 07:06:39;;;;;;;;;6.60;6.00;;;;;15.09;26.02;97717.78;5589996;28;4866858;-89
2021/04/05 07:09:50;;;;;;;;;5.40;5.00;;;;;14.11;26.39;97546.78;5593846;28;4153400;-90
2021/04/05 07:13:02;;;;;;;;;7.00;6.00;;;;;15.19;26.11;97671.59;5579524;28;4853284;-90
2021/04/05 07:16:15;;;;;;;;;6.40;6.00;;;;;14.64;26.24;97608.38;5581945;28;4850196;-91
2021/04/05 07:19:38;;;;;;;;;6.60;6.60;;;;;15.86;25.89;97710.78;5597256;28;4855384;-91
2021/04/05 07:22:56;;;;;;;;;8.00;7.00;;;;;16.24;25.89;97706.38;5579663;28;4872063;-91
2021/04/05 07:26:14;;;;;;;;;6.80;5.00;;;;;16.28;25.39;97708.22;5609673;28;4846345;-91
2021/04/05 07:29:27;;;;;;;;;6.00;5.00;;;;;15.17;25.30;97532.59;5627083;28;4857470;-90
2021/04/05 07:32:38;;;;;;;;;6.60;6.00;;;;;15.97;25.39;97585.41;5566021;28;4857523;-90
2021/04/05 07:35:53;;;;;;;;;5.83;5.00;;;;;16.36;24.77;97641.53;5592756;28;4870067;-90
2021/04/05 07:39:06;;;;;;;;;7.00;6.00;;;;;15.26;24.93;97471.16;5593747;28;4856452;-90
2021/04/05 07:42:21;;;;;;;;;7.00;6.44;;;;;16.71;24.85;97662.13;5613175;28;4867867;-92
2021/04/05 07:45:38;;;;;;;;;8.00;7.00;;;;;16.97;24.73;97638.91;5613644;28;4869954;-90
2021/04/05 07:49:11;;;;;;;;;6.00;6.00;;;;;16.86;24.05;97559.28;5589667;28;4865772;-90
2021/04/05 07:52:30;;;;;;;;;6.00;6.00;;;;;16.97;24.14;97559.13;5614923;28;4156540;-90
2021/04/05 07:55:35;;;;;;;;;8.67;8.00;;;;;17.39;23.45;97589.00;5581953;28;4876370;-92
2021/04/05 07:58:52;;;;;;;;;7.00;7.00;;;;;17.90;23.71;97669.94;5592396;28;4160727;-90
2021/04/05 08:02:04;;;;;;;;;8.00;6.00;;;;;17.75;23.70;97620.00;5580736;28;4848105;-91
2021/04/05 08:09:15;;;;;;;;;6.83;6.00;;;;;18.26;23.58;97610.13;5593202;28;4870055;-92
2021/04/05 08:12:27;;;;;;;;;6.80;6.40;;;;;17.27;23.08;97442.38;5582409;28;4859531;-89
2021/04/05 08:15:37;;;;;;;;;9.00;8.00;;;;;18.73;22.93;97625.28;5578606;28;4886649;-91
2021/04/05 08:18:51;;;;;;;;;9.00;9.00;;;;;18.73;22.87;97615.19;5568662;28;4349158;-92
2021/04/05 08:22:01;;;;;;;;;7.40;6.00;;;;;18.93;23.28;97605.75;5580788;28;4864680;-92
2021/04/05 08:25:24;;;;;;;;;7.83;7.00;;;;;18.29;22.44;97568.56;5584432;28;4157480;-92
2021/04/05 08:28:39;;;;;;;;;8.20;7.20;;;;;18.64;22.66;97600.63;5586152;28;4854299;-92
2021/04/05 08:32:10;;;;;;;;;8.80;7.00;;;;;18.92;22.97;97593.19;5571252;28;4857543;-92
2021/04/05 08:35:26;;;;;;;;;6.78;6.33;;;;;19.07;22.37;97575.66;5559389;28;4138782;-92
2021/04/05 08:38:38;;;;;;;;;7.80;6.80;;;;;19.58;21.75;97592.50;5555723;28;4852252;-92
2021/04/05 08:41:56;;;;;;;;;8.00;8.00;;;;;17.79;22.13;97346.84;5599001;28;4872054;-93
2021/04/05 08:45:20;;;;;;;;;8.00;8.00;;;;;19.00;22.00;97464.94;5565425;28;4862652;-92
2021/04/05 08:48:30;;;;;;;;;5.00;5.00;;;;;19.36;21.82;97549.53;5599810;28;4135619;-92
2021/04/05 08:51:41;;;;;;;;;7.00;7.00;;;;;19.86;21.85;97569.34;5566682;28;4867871;-92
2021/04/05 08:54:49;;;;;;;;;6.00;6.00;;;;;19.71;22.00;97555.28;5581873;28;4856450;-92
2021/04/05 08:57:59;;;;;;;;;8.00;8.00;;;;;19.81;21.57;97525.72;5594655;28;4157915;-91
2021/04/05 09:01:05;;;;;;;;;7.40;7.00;;;;;20.02;21.69;97544.34;5567654;28;4868988;-91
2021/04/05 09:04:10;;;;;;;;;8.40;7.00;;;;;20.05;21.24;97508.13;5569537;28;4860564;-92
2021/04/05 09:07:30;;;;;;;;;8.00;8.00;;;;;20.04;21.56;97481.88;5578526;28;4872030;-92
2021/04/05 09:10:42;;;;;;;;;7.00;7.00;;;;;20.23;21.30;97496.16;5598648;28;4154365;-91
2021/04/05 09:13:46;;;;;;;;;8.00;7.60;;;;;20.57;20.91;97503.66;5588388;28;4875174;-92
2021/04/05 09:17:23;;;;;;;;;8.80;7.80;;;;;20.44;21.29;97502.66;5578900;28;4882506;-93
2021/04/05 09:20:45;;;;;;;;;7.40;6.40;;;;;20.24;21.50;97482.13;5596754;28;4397106;-92
2021/04/05 09:24:15;;;;;;;;;6.00;6.00;;;;;20.18;21.71;97430.63;5589830;28;4444993;-92
2021/04/05 09:27:55;;;;;;;;;7.00;6.60;;;;;21.05;20.99;97496.09;5578385;28;4865805;-90
2021/04/05 09:31:31;;;;;;;;;6.00;6.00;;;;;21.13;21.08;97489.00;5583072;28;4855385;-90
2021/04/05 09:35:20;;;;;;;;;7.20;7.00;;;;;21.15;20.77;97432.78;5587172;28;4857519;-92
2021/04/05 09:38:47;;;;;;;;;8.00;7.00;;;;;21.00;19.96;97448.88;5583325;28;4860596;-92
2021/04/05 09:42:17;;;;;;;;;9.00;8.00;;;;;21.30;20.48;97474.50;5598804;28;3690927;-91
2021/04/05 09:45:30;;;;;;;;;7.40;7.40;;;;;20.53;20.19;97390.41;5604871;28;4872053;-90
2021/04/05 09:48:56;;;;;;;;;7.00;6.00;;;;;21.02;20.36;97443.88;5583535;28;4857500;-90
2021/04/05 09:52:34;;;;;;;;;7.00;5.83;;;;;21.34;19.84;97368.56;5612138;28;4857424;-90
2021/04/05 09:55:53;;;;;;;;;10.40;9.40;;;;;21.89;19.72;97396.69;5594357;28;4932480;-90
2021/04/05 09:59:04;;;;;;;;;8.00;8.00;;;;;22.36;19.14;97416.63;5572356;28;4151257;-90
2021/04/05 10:02:14;;;;;;;;;7.75;7.75;;;;;22.83;19.24;97441.16;5602436;28;4158557;-90
2021/04/05 10:05:19;;;;;;;;;7.00;6.40;;;;;23.19;18.93;97426.75;5585300;28;4848077;-90
2021/04/05 10:08:25;;;;;;;;;10.17;10.17;;;;;23.08;18.72;97385.16;5591175;28;4929742;-90
2021/04/05 10:11:36;;;;;;;;;6.80;5.80;;;;;21.92;18.47;97245.13;5593337;28;4851202;-90
2021/04/05 10:14:42;;;;;;;;;6.00;6.00;;;;;22.72;19.00;97347.38;5563061;28;4854307;-90
2021/04/05 10:17:54;;;;;;;;;7.00;6.00;;;;;22.76;18.88;97392.25;5613114;28;4860600;-90
2021/04/05 10:20:58;;;;;;;;;5.00;5.00;;;;;22.02;19.01;97180.84;5579141;28;4854326;-90
2021/04/05 10:24:04;;;;;;;;;8.00;6.20;;;;;23.56;18.32;97387.22;5601560;28;4151273;-90
2021/04/05 10:27:14;;;;;;;;;6.00;6.00;;;;;23.39;18.50;97359.09;5579133;28;4850204;-90
2021/04/05 10:30:31;;;;;;;;;6.40;6.40;;;;;23.49;18.35;97373.25;5580274;28;4857412;-90
2021/04/05 10:33:40;;;;;;;;;6.00;6.00;;;;;22.75;18.10;97279.94;5634749;28;4856442;-91
2021/04/05 10:36:59;;;;;;;;;5.40;4.40;;;;;23.31;18.05;97334.09;5577489;28;4862715;-91
2021/04/05 10:40:03;;;;;;;;;7.33;7.00;;;;;23.49;18.24;97331.19;5571766;28;4857502;-90
2021/04/05 10:47:53;;;;;;;;;6.00;5.40;;;;;23.00;17.73;97278.06;5571477;28;4861701;-91
2021/04/05 10:50:59;;;;;;;;;7.00;7.00;;;;;23.42;18.08;97312.47;5565266;28;4880387;-91
2021/04/05 10:54:09;;;;;;;;;4.78;4.78;;;;;23.20;17.82;97249.69;5589461;28;4150165;-90
2021/04/05 10:57:16;;;;;;;;;5.60;5.00;;;;;23.83;17.73;97322.47;5577892;28;4142997;-93
2021/04/05 11:00:23;;;;;;;;;5.20;5.00;;;;;23.87;18.11;97358.34;5565833;28;4854655;-90
2021/04/05 11:03:31;;;;;;;;;5.80;5.00;;;;;23.42;17.84;97275.91;5565086;28;4869948;-90
2021/04/05 11:06:38;;;;;;;;;4.56;4.44;;;;;23.44;17.71;97284.63;5596209;28;4864795;-90
2021/04/05 11:09:44;;;;;;;;;4.00;3.20;;;;;21.97;17.50;97085.00;5574749;28;4447125;-90
2021/04/05 11:12:55;;;;;;;;;4.20;3.20;;;;;23.00;18.47;97261.56;5580223;28;4857420;-91
2021/04/05 11:16:00;;;;;;;;;5.40;5.00;;;;;22.92;18.04;97259.75;5597283;28;4857435;-90
2021/04/05 11:19:08;;;;;;;;;6.00;5.00;;;;;22.68;18.17;97243.94;5605066;28;4855372;-91
2021/04/05 11:22:17;;;;;;;;;6.00;6.00;;;;;22.35;18.39;97250.25;5598010;28;4857490;-91
2021/04/05 11:25:31;;;;;;;;;5.00;4.60;;;;;22.09;18.56;97238.72;5585111;28;4873088;-90
2021/04/05 11:28:36;;;;;;;;;4.00;4.00;;;;;21.55;18.69;97192.00;5567911;28;4850235;-90
2021/04/05 11:31:42;;;;;;;;;5.60;5.20;;;;;21.67;18.62;97278.22;5565657;28;4836643;-91
2021/04/05 11:34:54;;;;;;;;;5.00;5.00;;;;;21.82;18.89;97225.53;5565435;28;4852239;-90
2021/04/05 11:38:03;;;;;;;;;5.11;5.11;;;;;22.61;18.29;97241.78;5595919;28;4856449;-90
2021/04/05 11:41:10;;;;;;;;;3.00;3.00;;;;;22.71;18.51;97171.91;5574253;28;4858536;-90
2021/04/05 11:44:19;;;;;;;;;4.00;3.00;;;;;23.17;17.55;97240.16;5565225;28;4852275;-91
2021/04/05 11:47:32;;;;;;;;;4.00;4.00;;;;;22.46;17.20;97166.34;5599221;28;4855404;-90
2021/04/05 11:50:43;;;;;;;;;4.00;4.00;;;;;23.19;17.56;97193.09;5581088;28;4860592;-90
2021/04/05 11:53:52;;;;;;;;;4.00;4.00;;;;;22.98;17.43;97215.19;5575613;28;4852382;-89
2021/04/05 11:57:00;;;;;;;;;4.80;3.20;;;;;22.43;17.38;97204.66;5586873;28;4864740;-89
2021/04/05 12:00:09;;;;;;;;;4.00;4.00;;;;;21.92;17.94;97230.59;5586330;28;4154361;-90
2021/04/05 12:03:33;;;;;;;;;2.25;2.25;;;;;20.85;18.36;97090.56;5611126;28;3787698;-90
2021/04/05 12:06:43;;;;;;;;;4.00;3.83;;;;;20.97;18.87;97121.56;5598768;28;4879465;-90
2021/04/05 12:09:58;;;;;;;;;5.22;5.00;;;;;20.85;19.25;97126.97;5617297;28;4851213;-90
2021/04/05 12:13:15;;;;;;;;;4.30;4.30;;;;;20.41;19.55;97122.84;5617563;28;4870046;-92
2021/04/05 12:16:23;;;;;;;;;5.00;5.00;;;;;19.58;19.76;96999.34;5586396;28;4853322;-92
2021/04/05 12:19:31;;;;;;;;;4.50;3.50;;;;;20.01;19.89;97097.66;5596053;28;4364782;-92
2021/04/05 12:22:39;;;;;;;;;5.60;4.60;;;;;20.43;19.96;97133.47;5612161;28;4854437;-92
2021/04/05 12:25:45;;;;;;;;;4.00;4.00;;;;;20.42;19.77;97149.09;5576839;28;4110611;-92
2021/04/05 12:28:51;;;;;;;;;4.00;4.00;;;;;20.05;20.08;97074.00;5567443;28;4129452;-90
2021/04/05 12:31:56;;;;;;;;;3.00;3.00;;;;;20.26;20.21;97117.88;5600277;28;4846057;-91
2021/04/05 12:35:05;;;;;;;;;6.40;5.00;;;;;20.83;20.57;97173.06;5613729;28;4853293;-91
2021/04/05 12:38:46;;;;;;;;;4.00;4.00;;;;;20.57;19.41;97169.63;5605714;28;4850203;-91
2021/04/05 12:41:53;;;;;;;;;4.00;4.00;;;;;20.50;19.59;97172.06;5619543;28;4879428;-91
2021/04/05 12:45:01;;;;;;;;;5.00;4.00;;;;;20.89;19.77;97119.69;5615522;28;4856418;-91
2021/04/05 12:48:09;;;;;;;;;6.00;5.00;;;;;21.16;19.51;97110.19;5593212;28;4860636;-90
2021/04/05 12:51:22;;;;;;;;;5.40;4.00;;;;;21.54;19.17;97134.75;5595684;28;4857551;-92
2021/04/05 12:54:29;;;;;;;;;3.00;3.00;;;;;21.42;19.31;97105.34;5587768;28;4864767;-91
2021/04/05 12:57:36;;;;;;;;;3.20;3.00;;;;;21.47;18.92;97135.28;5590644;28;4864750;-92
2021/04/05 13:00:41;;;;;;;;;5.60;4.60;;;;;22.14;18.84;97125.22;5589553;28;4855719;-91
2021/04/05 13:03:52;;;;;;;;;3.60;3.60;;;;;22.34;18.28;97114.13;5601263;28;4874130;-92
2021/04/05 13:07:03;;;;;;;;;5.00;4.40;;;;;21.94;18.61;97056.31;5590718;28;4862731;-91
2021/04/05 13:10:21;;;;;;;;;5.00;4.50;;;;;22.71;17.94;97100.47;5600656;28;4146005;-91
2021/04/05 13:13:29;;;;;;;;;5.00;5.00;;;;;22.80;17.95;97087.41;5602601;28;4143915;-92
2021/04/05 13:16:38;;;;;;;;;5.00;5.00;;;;;22.59;17.83;97064.72;5602155;28;4853309;-91
2021/04/05 13:19:44;;;;;;;;;4.00;4.00;;;;;22.17;17.04;97064.13;5589443;28;4881405;-91
2021/04/05 13:22:54;;;;;;;;;5.00;4.00;;;;;22.18;17.11;97084.97;5590134;28;4879344;-90
2021/04/05 13:26:03;;;;;;;;;4.80;4.80;;;;;21.83;17.40;97082.56;5588831;28;4861113;-90
2021/04/05 13:29:07;;;;;;;;;4.00;4.00;;;;;21.32;17.50;97011.75;5574329;28;4133521;-91
2021/04/05 13:32:13;;;;;;;;;4.80;3.80;;;;;21.03;17.75;97009.88;5569007;28;4865773;-90
2021/04/05 13:35:21;;;;;;;;;6.40;6.00;;;;;20.47;18.47;96961.97;5576631;28;4858559;-91
2021/04/05 13:38:26;;;;;;;;;5.00;5.00;;;;;21.15;19.23;97082.03;5594565;28;4151246;-91
2021/04/05 13:41:35;;;;;;;;;5.80;4.80;;;;;20.53;19.27;97007.16;5575707;28;4849474;-92
2021/04/05 13:45:17;;;;;;;;;4.11;4.11;;;;;20.48;19.72;97068.38;5596767;28;4866882;-91
2021/04/05 13:48:25;;;;;;;;;6.00;5.75;;;;;20.66;20.04;97067.16;5577721;28;4148099;-90
2021/04/05 13:51:31;;;;;;;;;3.00;3.00;;;;;20.24;19.62;97057.19;5585780;28;4868957;-91
2021/04/05 13:59:19;;;;;;;;;5.00;5.00;;;;;19.85;19.89;97067.28;5596775;28;4148121;-91
2021/04/05 14:02:25;;;;;;;;;5.00;4.00;;;;;19.37;20.02;97023.78;5595601;28;3783676;-90
2021/04/05 14:05:38;;;;;;;;;5.00;4.40;;;;;19.29;20.42;97048.38;5587935;28;4858508;-91
2021/04/05 14:08:46;;;;;;;;;5.00;5.00;;;;;19.33;20.67;97025.56;5596381;28;4866842;-91
2021/04/05 14:15:32;;;;;;;;;5.33;5.33;;;;;19.22;20.78;97075.38;5604901;28;4854318;-90
2021/04/05 14:18:40;;;;;;;;;5.20;5.00;;;;;18.98;21.21;97041.16;5592272;28;4863798;-91
2021/04/05 14:21:47;;;;;;;;;5.67;5.17;;;;;18.64;21.35;97052.03;5579830;28;4862707;-90
2021/04/05 14:24:53;;;;;;;;;4.60;4.60;;;;;17.74;21.42;96903.50;5599831;28;4852528;-91
2021/04/05 14:28:03;;;;;;;;;6.00;6.00;;;;;18.62;21.34;97007.06;5579720;28;4843902;-91
2021/04/05 14:31:18;;;;;;;;;5.78;4.78;;;;;18.22;21.38;96922.56;5588277;28;4134933;-91
2021/04/05 14:34:26;;;;;;;;;5.00;5.00;;;;;18.64;21.49;97018.47;5598790;28;4858488;-91
2021/04/05 14:37:34;;;;;;;;;6.00;5.60;;;;;18.51;21.46;97014.72;5593052;28;4854310;-92
2021/04/05 14:40:41;;;;;;;;;4.00;4.00;;;;;18.58;21.58;97043.16;5592673;28;4146133;-91
2021/04/05 14:43:49;;;;;;;;;5.20;5.00;;;;;18.35;21.92;97010.84;5591632;28;4843985;-91
2021/04/05 14:46:55;;;;;;;;;5.00;5.00;;;;;17.46;21.88;96851.13;5592856;28;4864739;-91
2021/04/05 14:50:03;;;;;;;;;4.80;4.00;;;;;18.19;22.01;96983.19;5590464;28;4164912;-91
2021/04/05 14:53:10;;;;;;;;;6.80;5.00;;;;;18.56;22.05;96979.13;5587119;28;4867867;-90